METAR Data
IDs: Format: Raw Decoded Include TAF

Data at: 2251 UTC 10 May 2021

KSTK 102235Z AUTO 12010KT 10SM SCT014 BKN018 OVC037 05/03 A3014 RMK AO2
KSTK 102215Z AUTO 11011G16KT 10SM SCT012 SCT016 OVC036 05/04 A3013 RMK AO2
KSTK 102155Z AUTO 11008G14KT 10SM -DZ SCT022 BKN040 OVC047 04/03 A3013 RMK AO2
KSTK 102135Z AUTO 13011KT 5SM -RA SCT016 BKN022 OVC047 05/03 A3015 RMK AO2
KSTK 102115Z AUTO 14015G20KT 10SM -DZ BKN019 OVC025 05/03 A3015 RMK AO2
KSTK 102055Z AUTO 13010G17KT 10SM -RA SCT018 OVC025 05/04 A3013 RMK AO2
KSTK 102035Z AUTO 12010KT 10SM -RA SCT016 BKN023 OVC032 05/04 A3014 RMK AO2
KSTK 102015Z AUTO 12010G14KT 10SM -DZ SCT015 BKN022 OVC032 05/05 A3013 RMK AO2
KSTK 101955Z AUTO 13009KT 10SM -DZ BKN012 BKN018 OVC025 05/05 A3014 RMK AO2 P0001
KSTK 101935Z AUTO 14012KT 7SM -RA BKN014 BKN021 OVC026 05/05 A3014 RMK AO2 P0001
KSTK 101915Z AUTO 13011G14KT 10SM -DZ BKN014 BKN020 OVC026 06/05 A3013 RMK AO2
KSTK 101855Z AUTO 13011KT 10SM -RA BKN014 OVC019 06/05 A3014 RMK AO2 P0002
KSTK 101835Z AUTO 13008KT 10SM -RA BKN014 OVC019 05/05 A3015 RMK AO2 P0002
KSTK 101815Z AUTO 15012KT 10SM -RA SCT015 OVC019 05/04 A3016 RMK AO2
KSTK 101755Z AUTO 16011G16KT 10SM -RA BKN016 OVC022 04/03 A3016 RMK AO2 LTG DSNT W
KSTK 101735Z AUTO 18018KT 10SM -RA BKN016 OVC022 05/03 A3016 RMK AO2
KSTK 101715Z AUTO 18013KT 10SM -RA BKN018 OVC023 05/03 A3016 RMK AO2
KSTK 101655Z AUTO 17012G17KT 10SM -RA BKN018 BKN023 OVC030 05/03 A3016 RMK AO2
KSTK 101635Z AUTO 17013KT 10SM DZ SCT018 BKN025 OVC029 05/04 A3015 RMK AO2
KSTK 101615Z AUTO 17013G16KT 10SM SCT022 BKN030 OVC045 06/03 A3015 RMK AO2
KSTK 101555Z AUTO 18015KT 10SM SCT021 SCT030 OVC046 06/03 A3014 RMK AO2
KSTK 101535Z AUTO 19015G19KT 10SM SCT020 BKN024 OVC050 06/04 A3014 RMK AO2
KSTK 101515Z AUTO 17015G20KT 10SM SCT022 OVC039 06/03 A3013 RMK AO2
KSTK 101455Z AUTO 18014G18KT 10SM BKN024 OVC037 06/04 A3013 RMK AO2
KSTK 101435Z AUTO 18013KT 10SM SCT015 BKN024 OVC035 06/04 A3013 RMK AO2
KSTK 101415Z AUTO 15009KT 10SM -RA SCT015 BKN023 OVC033 06/05 A3013 RMK AO2
KSTK 101355Z AUTO 14005KT 10SM -DZ SCT019 BKN033 OVC045 06/05 A3012 RMK AO2
KSTK 101335Z AUTO 19003KT 10SM SCT018 BKN024 OVC043 06/06 A3012 RMK AO2
KSTK 101315Z AUTO 19006KT 10SM BKN018 BKN039 OVC047 06/05 A3012 RMK AO2
KSTK 101255Z AUTO 20004KT 10SM SCT049 OVC065 06/05 A3012 RMK AO2
KSTK 101235Z AUTO 00000KT 10SM -DZ SCT031 SCT040 OVC065 06/05 A3011 RMK AO2
KSTK 101215Z AUTO 00000KT 10SM RA SCT026 BKN033 OVC045 05/05 A3011 RMK AO2
KSTK 101155Z AUTO 17003KT 10SM -RA OVC026 05/05 A3011 RMK AO2 P0003
KSTK 101135Z AUTO 17008KT 10SM -RA OVC030 06/05 A3012 RMK AO2
KSTK 101115Z AUTO 15007KT 10SM -RA BKN030 BKN034 OVC040 06/04 A3012 RMK AO2
KSTK 101055Z AUTO 16006KT 10SM -RA BKN034 OVC041 07/04 A3011 RMK AO2
KSTK 101035Z AUTO 17005KT 10SM -DZ SCT034 BKN040 OVC070 07/03 A3011 RMK AO2
KSTK 101015Z AUTO 13004KT 10SM BKN070 OVC080 07/03 A3011 RMK AO2
KSTK 100955Z AUTO 00000KT 10SM SCT055 BKN070 OVC095 07/03 A3010 RMK AO2
KSTK 100935Z AUTO 00000KT 10SM OVC080 07/03 A3010 RMK AO2
KSTK 100915Z AUTO 12003KT 10SM OVC080 07/03 A3010 RMK AO2
KSTK 100855Z AUTO 13003KT 10SM BKN070 OVC085 07/03 A3009 RMK AO2
KSTK 100835Z AUTO 00000KT 10SM OVC070 06/03 A3010 RMK AO2
KSTK 100815Z AUTO 00000KT 10SM BKN070 OVC080 06/03 A3010 RMK AO2
KSTK 100755Z AUTO 00000KT 10SM BKN090 06/03 A3010 RMK AO2
KSTK 100735Z AUTO 12003KT 10SM OVC090 06/03 A3011 RMK AO2
KSTK 100715Z AUTO 13003KT 10SM BKN100 06/03 A3012 RMK AO2 LTG DSNT S
KSTK 100655Z AUTO 00000KT 10SM CLR 06/03 A3012 RMK AO2 LTG DSNT S
KSTK 100635Z AUTO 00000KT 10SM CLR 06/03 A3013 RMK AO2
KSTK 100615Z AUTO 03003KT 10SM SCT075 06/03 A3012 RMK AO2
KSTK 100555Z AUTO 03003KT 10SM OVC075 07/03 A3012 RMK AO2
KSTK 100535Z AUTO 01004KT 10SM OVC075 07/03 A3012 RMK AO2
KSTK 100515Z AUTO 00000KT 10SM OVC075 08/02 A3012 RMK AO2 LTG DSNT S
KSTK 100455Z AUTO 20004KT 10SM BKN075 OVC085 08/02 A3012 RMK AO2
KSTK 100435Z AUTO 19005KT 10SM SCT075 OVC085 08/02 A3012 RMK AO2
KSTK 100415Z AUTO 20005KT 10SM OVC085 08/02 A3012 RMK AO2
KSTK 100355Z AUTO 21005KT 10SM SCT070 OVC085 09/02 A3012 RMK AO2
KSTK 100335Z AUTO 22006KT 10SM BKN060 OVC070 10/02 A3012 RMK AO2
KSTK 100315Z AUTO 23004KT 10SM BKN060 OVC070 09/02 A3011 RMK AO2
KSTK 100255Z AUTO 21005KT 10SM SCT060 BKN080 OVC100 10/02 A3009 RMK AO2
KSTK 100235Z AUTO 20007KT 10SM BKN080 OVC100 10/03 A3008 RMK AO2 LTG DSNT NW
KSTK 100215Z AUTO 20007KT 10SM OVC080 10/02 A3008 RMK AO2
KSTK 100155Z AUTO 20011KT 10SM BKN080 OVC100 10/02 A3007 RMK AO2
KSTK 100135Z AUTO 21010KT 10SM SCT055 SCT075 OVC100 11/01 A3006 RMK AO2
KSTK 100115Z AUTO 20013KT 10SM SCT055 BKN075 OVC090 11/01 A3006 RMK AO2
KSTK 100055Z AUTO 20011KT 10SM BKN065 OVC090 11/02 A3005 RMK AO2
KSTK 100035Z AUTO 20009KT 10SM SCT049 BKN075 OVC080 12/01 A3004 RMK AO2
KSTK 100015Z AUTO 21014KT 10SM SCT049 BKN070 OVC080 12/02 A3004 RMK AO2
KSTK 092355Z AUTO 22010KT 10SM BKN070 BKN080 13/01 A3004 RMK AO2
KSTK 092335Z AUTO 21010KT 10SM SCT070 BKN080 13/00 A3003 RMK AO2
KSTK 092315Z AUTO 00000KT 10SM BKN080 13/M01 A3003 RMK AO2
KSTK 092255Z AUTO 19004KT 10SM BKN080 12/M01 A3003 RMK AO2
KSTK 092235Z AUTO 15007KT 10SM SCT080 14/M01 A3003 RMK AO2
KSTK 092215Z AUTO 20003KT 10SM SCT065 BKN080 14/M01 A3003 RMK AO2
KSTK 092155Z AUTO 22004KT 10SM BKN065 BKN080 13/M01 A3003 RMK AO2
KSTK 092135Z AUTO 11005KT 10SM SCT065 SCT080 13/M01 A3004 RMK AO2
KSTK 092115Z AUTO 09005KT 10SM BKN065 BKN075 13/M01 A3004 RMK AO2
KSTK 092055Z AUTO 11005KT 10SM SCT070 12/M01 A3004 RMK AO2
KSTK 092035Z AUTO 05003KT 10SM SCT070 13/M01 A3005 RMK AO2
KSTK 092015Z AUTO 00000KT 10SM SCT070 BKN100 12/M01 A3005 RMK AO2
KSTK 091955Z AUTO 00000KT 10SM BKN060 BKN110 12/M01 A3006 RMK AO2
KSTK 091935Z AUTO 04003KT 10SM BKN060 OVC110 13/00 A3006 RMK AO2
KSTK 091915Z AUTO 07003KT 10SM SCT050 BKN110 12/M01 A3007 RMK AO2
KSTK 091855Z AUTO 00000KT 10SM BKN050 11/00 A3008 RMK AO2
KSTK 091835Z AUTO 06003KT 10SM SCT047 OVC060 11/00 A3008 RMK AO2
KSTK 091815Z AUTO 35003KT 10SM BKN045 OVC055 11/00 A3009 RMK AO2
KSTK 091755Z AUTO 11007KT 10SM BKN043 10/00 A3009 RMK AO2
KSTK 091735Z AUTO 00000KT 10SM BKN041 11/00 A3010 RMK AO2
KSTK 091715Z AUTO 09006KT 10SM SCT039 10/01 A3011 RMK AO2
KSTK 091655Z AUTO 02005KT 10SM SCT032 09/00 A3011 RMK AO2
KSTK 091635Z AUTO 02007KT 10SM BKN032 08/00 A3011 RMK AO2
KSTK 091615Z AUTO 35004KT 10SM SCT030 08/00 A3011 RMK AO2
KSTK 091555Z AUTO 03007KT 342V052 10SM SCT028 09/01 A3011 RMK AO2
KSTK 091535Z AUTO 06007KT 10SM SCT026 08/01 A3011 RMK AO2
KSTK 091515Z AUTO 03007KT 10SM SCT024 08/01 A3010 RMK AO2
KSTK 091455Z AUTO 05010KT 352V082 10SM SCT022 07/02 A3011 RMK AO2
KSTK 091435Z AUTO 03009KT 10SM SCT020 07/02 A3011 RMK AO2
KSTK 091415Z AUTO 03009KT 10SM SCT017 SCT095 06/01 A3011 RMK AO2
KSTK 091355Z AUTO 02006KT 10SM SCT100 06/01 A3011 RMK AO2
KSTK 091335Z AUTO 03008KT 10SM SCT100 05/01 A3010 RMK AO2
KSTK 091315Z AUTO 04009KT 10SM BKN100 05/01 A3009 RMK AO2
KSTK 091255Z AUTO 05005KT 10SM BKN100 05/02 A3009 RMK AO2
KSTK 091235Z AUTO 05005KT 10SM BKN025 BKN090 03/01 A3008 RMK AO2
KSTK 091215Z AUTO 08004KT 10SM OVC025 04/02 A3008 RMK AO2
KSTK 091155Z AUTO 02005KT 10SM OVC023 03/02 A3008 RMK AO2
KSTK 091135Z AUTO 03007KT 10SM OVC023 03/02 A3007 RMK AO2
KSTK 091115Z AUTO 04006KT 10SM BKN023 BKN075 OVC100 03/02 A3007 RMK AO2
KSTK 091055Z AUTO 03004KT 10SM SCT075 OVC100 03/02 A3006 RMK AO2